Terminal Aerodrome Forecast
Issued by NWS

Home | Current Version | Previous Version | Text Only | Print | Product List | Glossary On
Versions: 1 2 3 4 5 6 7 8 9 10 11 12 13
000
FTUS45 KREV 242300
TAFTVL
TAF
KTVL 242335Z 2500/2524 19014G24KT P6SM SKC
     FM250300 19010G18KT P6SM SKC
     FM250800 18012G22KT P6SM SCT180
     FM251800 20025G37KT P6SM VCSH SCT040 BKN060 OVC100=

USA.gov is the U.S. government's official web portal to all federal, state and local government web resources and services.